createdAt,value
2016-12-29T00:00:00.333Z,74680
2016-12-29T00:00:09.016Z,74681
2016-12-29T00:00:17.673Z,74676
2016-12-29T00:00:26.342Z,74676
2016-12-29T00:00:34.999Z,74680
2016-12-29T00:00:43.656Z,74679
2016-12-29T00:00:52.333Z,74679
2016-12-29T00:01:00.979Z,74673
2016-12-29T00:01:09.638Z,74671
2016-12-29T00:01:18.314Z,74675
2016-12-29T00:01:27.033Z,74665
2016-12-29T00:01:35.711Z,74666
2016-12-29T00:01:44.370Z,74667
2016-12-29T00:01:53.042Z,74665
2016-12-29T00:02:01.704Z,74674
2016-12-29T00:02:10.397Z,74674
2016-12-29T00:02:19.108Z,74672
2016-12-29T00:02:27.759Z,74673
2016-12-29T00:02:36.462Z,74672
2016-12-29T00:02:45.141Z,74669
2016-12-29T00:02:53.836Z,74669
2016-12-29T00:03:02.486Z,74671
2016-12-29T00:03:11.155Z,74666
2016-12-29T00:03:19.811Z,74668
2016-12-29T00:03:28.469Z,74669
2016-12-29T00:03:37.139Z,74670
2016-12-29T00:03:45.809Z,74674
2016-12-29T00:03:54.473Z,74674
2016-12-29T00:04:03.142Z,74672
2016-12-29T00:04:11.825Z,74668
2016-12-29T00:04:20.483Z,74667
2016-12-29T00:04:29.152Z,74662
2016-12-29T00:04:37.821Z,74665
2016-12-29T00:04:46.496Z,74671
2016-12-29T00:04:55.175Z,74665
2016-12-29T00:05:03.864Z,74668
2016-12-29T00:05:12.530Z,74671
2016-12-29T00:05:21.248Z,74669
2016-12-29T00:05:29.926Z,74669
2016-12-29T00:05:38.595Z,74670
2016-12-29T00:05:47.258Z,74673
2016-12-29T00:05:55.943Z,74674
2016-12-29T00:06:04.617Z,74671
2016-12-29T00:06:13.281Z,74672
2016-12-29T00:06:21.938Z,74674
2016-12-29T00:06:30.612Z,74678
2016-12-29T00:06:39.258Z,74676
2016-12-29T00:06:47.940Z,74675
2016-12-29T00:06:56.637Z,74666
2016-12-29T00:07:05.305Z,74661
2016-12-29T00:07:13.993Z,74647
2016-12-29T00:07:22.650Z,74646
2016-12-29T00:07:31.339Z,74652
2016-12-29T00:07:40.010Z,74661
2016-12-29T00:07:48.699Z,74669
2016-12-29T00:07:57.380Z,74666
2016-12-29T00:08:06.058Z,74673
2016-12-29T00:08:14.724Z,74666
2016-12-29T00:08:23.392Z,74671
2016-12-29T00:08:32.066Z,74666
2016-12-29T00:08:40.749Z,74666
2016-12-29T00:08:49.396Z,74670
2016-12-29T00:08:58.063Z,74668
2016-12-29T00:09:06.727Z,74668
2016-12-29T00:09:15.371Z,74669
2016-12-29T00:09:24.041Z,74675
2016-12-29T00:09:32.692Z,74673
2016-12-29T00:09:41.356Z,74668
2016-12-29T00:09:50.045Z,74670
2016-12-29T00:09:58.734Z,74663
2016-12-29T00:10:07.414Z,74660
2016-12-29T00:10:16.096Z,74667
2016-12-29T00:10:24.789Z,74665
2016-12-29T00:10:33.472Z,74671
2016-12-29T00:10:42.158Z,74678
2016-12-29T00:10:50.856Z,74674
2016-12-29T00:10:59.563Z,74674
2016-12-29T00:11:08.262Z,74673
2016-12-29T00:11:16.955Z,74670
2016-12-29T00:11:25.639Z,74662
2016-12-29T00:11:34.345Z,74665
2016-12-29T00:11:43.019Z,74666
2016-12-29T00:11:51.698Z,74665
2016-12-29T00:12:00.362Z,74671
2016-12-29T00:12:09.057Z,74673
2016-12-29T00:12:17.723Z,74677
2016-12-29T00:12:26.386Z,74675
2016-12-29T00:12:35.054Z,74672
2016-12-29T00:12:43.727Z,74674
2016-12-29T00:12:52.404Z,74670
2016-12-29T00:13:01.074Z,74666
2016-12-29T00:13:09.736Z,74664
2016-12-29T00:13:18.411Z,74656
2016-12-29T00:13:27.109Z,74660
2016-12-29T00:13:35.820Z,74663
2016-12-29T00:13:44.494Z,74662
2016-12-29T00:13:53.171Z,74664
2016-12-29T00:14:01.819Z,74664
2016-12-29T00:14:10.480Z,74664
2016-12-29T00:14:19.168Z,74667
2016-12-29T00:14:27.818Z,74665
2016-12-29T00:14:36.510Z,74665
2016-12-29T00:14:45.179Z,74673
2016-12-29T00:14:53.840Z,74671
2016-12-29T00:15:02.526Z,74673
2016-12-29T00:15:11.198Z,74669
2016-12-29T00:15:19.849Z,74674
2016-12-29T00:15:28.506Z,74674
2016-12-29T00:15:37.153Z,74670
2016-12-29T00:15:45.825Z,74677
2016-12-29T00:15:54.485Z,74683
2016-12-29T00:16:03.162Z,74675
2016-12-29T00:16:11.841Z,74677
2016-12-29T00:16:20.523Z,74670
2016-12-29T00:16:29.182Z,74667
2016-12-29T00:16:37.844Z,74666
2016-12-29T00:16:46.513Z,74668
2016-12-29T00:16:55.168Z,74669
2016-12-29T00:17:03.835Z,74668
2016-12-29T00:17:12.521Z,74668
2016-12-29T00:17:21.185Z,74670
2016-12-29T00:17:29.845Z,74672
2016-12-29T00:17:38.549Z,74669
2016-12-29T00:17:47.212Z,74671
2016-12-29T00:17:55.876Z,74667
2016-12-29T00:18:04.544Z,74654
2016-12-29T00:18:13.212Z,74662
2016-12-29T00:18:21.886Z,74665
2016-12-29T00:18:30.572Z,74663
2016-12-29T00:18:39.232Z,74669
2016-12-29T00:18:47.916Z,74671
2016-12-29T00:18:56.584Z,74669
2016-12-29T00:19:05.256Z,74666
2016-12-29T00:19:13.937Z,74660
2016-12-29T00:19:22.611Z,74655
2016-12-29T00:19:31.267Z,74661
2016-12-29T00:19:39.976Z,74665
2016-12-29T00:19:49.035Z,74669
2016-12-29T00:19:57.707Z,74664
2016-12-29T00:20:06.739Z,74661
2016-12-29T00:20:15.413Z,74659
2016-12-29T00:20:24.078Z,74665
2016-12-29T00:20:32.746Z,74668
2016-12-29T00:20:41.409Z,74666
2016-12-29T00:20:50.089Z,74668
2016-12-29T00:20:58.762Z,74667
2016-12-29T00:21:07.431Z,74661
2016-12-29T00:21:16.090Z,74659
2016-12-29T00:21:24.746Z,74660
2016-12-29T00:21:33.442Z,74657
2016-12-29T00:21:42.119Z,74660
2016-12-29T00:21:50.797Z,74659
2016-12-29T00:21:59.463Z,74663
2016-12-29T00:22:08.128Z,74670
2016-12-29T00:22:16.812Z,74668
2016-12-29T00:22:25.469Z,74667
2016-12-29T00:22:34.112Z,74674
2016-12-29T00:22:43.153Z,74678
2016-12-29T00:22:51.834Z,74673
2016-12-29T00:23:00.493Z,74673
2016-12-29T00:23:09.191Z,74664
2016-12-29T00:23:17.847Z,74655
2016-12-29T00:23:26.520Z,74643
2016-12-29T00:23:35.182Z,74644
2016-12-29T00:23:43.868Z,74648
2016-12-29T00:23:52.576Z,74647
2016-12-29T00:24:01.251Z,74652
2016-12-29T00:24:09.934Z,74654
2016-12-29T00:24:18.604Z,74659
2016-12-29T00:24:27.285Z,74662
2016-12-29T00:24:35.950Z,74668
2016-12-29T00:24:44.646Z,74668
2016-12-29T00:24:53.316Z,74668
2016-12-29T00:25:01.987Z,74664
2016-12-29T00:25:10.657Z,74658
2016-12-29T00:25:19.350Z,74657
2016-12-29T00:25:28.006Z,74652
2016-12-29T00:25:36.674Z,74648
2016-12-29T00:25:45.339Z,74642
2016-12-29T00:25:54.010Z,74642
2016-12-29T00:26:02.678Z,74643
2016-12-29T00:26:11.354Z,74649
2016-12-29T00:26:20.047Z,74656
2016-12-29T00:26:28.735Z,74662
2016-12-29T00:26:37.426Z,74659
2016-12-29T00:26:46.090Z,74659
2016-12-29T00:26:54.758Z,74660
2016-12-29T00:27:03.421Z,74665
2016-12-29T00:27:12.104Z,74668
2016-12-29T00:27:20.775Z,74670
2016-12-29T00:27:29.425Z,74669
2016-12-29T00:27:38.081Z,74661
2016-12-29T00:27:46.743Z,74659
2016-12-29T00:27:55.434Z,74652
2016-12-29T00:28:04.086Z,74642
2016-12-29T00:28:12.765Z,74639
2016-12-29T00:28:21.457Z,74640
2016-12-29T00:28:30.133Z,74646
2016-12-29T00:28:39.169Z,74650
2016-12-29T00:28:47.835Z,74658
2016-12-29T00:28:56.504Z,74663
2016-12-29T00:29:05.189Z,74664
2016-12-29T00:29:13.885Z,74671
2016-12-29T00:29:22.559Z,74665
2016-12-29T00:29:31.212Z,74669
2016-12-29T00:29:39.886Z,74665
2016-12-29T00:29:48.925Z,74657
2016-12-29T00:29:57.579Z,74652
2016-12-29T00:30:06.231Z,74650
2016-12-29T00:30:14.893Z,74641
2016-12-29T00:30:23.571Z,74638
2016-12-29T00:30:32.253Z,74640
2016-12-29T00:30:40.919Z,74642
2016-12-29T00:30:49.600Z,74646
2016-12-29T00:30:58.273Z,74650
2016-12-29T00:31:06.956Z,74657
2016-12-29T00:31:15.655Z,74661
2016-12-29T00:31:24.336Z,74660
2016-12-29T00:31:33.024Z,74661
2016-12-29T00:31:41.699Z,74656
2016-12-29T00:31:50.371Z,74660
2016-12-29T00:31:59.033Z,74658
2016-12-29T00:32:07.699Z,74656
2016-12-29T00:32:16.769Z,74657
2016-12-29T00:32:25.448Z,74657
2016-12-29T00:32:34.133Z,74655
2016-12-29T00:32:42.801Z,74659
2016-12-29T00:32:51.467Z,74659
2016-12-29T00:33:00.142Z,74654
2016-12-29T00:33:08.810Z,74658
2016-12-29T00:33:17.491Z,74662
2016-12-29T00:33:26.189Z,74659
2016-12-29T00:33:34.864Z,74669
2016-12-29T00:33:43.536Z,74668
2016-12-29T00:33:52.206Z,74677
2016-12-29T00:34:00.877Z,74671
2016-12-29T00:34:09.545Z,74674
2016-12-29T00:34:18.215Z,74672
2016-12-29T00:34:26.886Z,74663
2016-12-29T00:34:35.585Z,74657
2016-12-29T00:34:44.263Z,74636
2016-12-29T00:34:52.929Z,74625
2016-12-29T00:35:01.628Z,74614
2016-12-29T00:35:10.313Z,74612
2016-12-29T00:35:18.956Z,74622
2016-12-29T00:35:27.615Z,74628
2016-12-29T00:35:36.276Z,74635
2016-12-29T00:35:44.969Z,74641
2016-12-29T00:35:53.631Z,74644
2016-12-29T00:36:02.305Z,74650
2016-12-29T00:36:10.994Z,74643
2016-12-29T00:36:19.677Z,74641
2016-12-29T00:36:28.349Z,74648
2016-12-29T00:36:37.051Z,74653
2016-12-29T00:36:45.730Z,74650
2016-12-29T00:36:54.392Z,74647
2016-12-29T00:37:03.057Z,74645
2016-12-29T00:37:11.730Z,74645
2016-12-29T00:37:20.422Z,74642
2016-12-29T00:37:29.097Z,74641
2016-12-29T00:37:37.771Z,74646
2016-12-29T00:37:46.430Z,74649
2016-12-29T00:37:55.115Z,74645
2016-12-29T00:38:03.788Z,74649
2016-12-29T00:38:12.465Z,74653
2016-12-29T00:38:21.144Z,74653
2016-12-29T00:38:29.828Z,74659
2016-12-29T00:38:38.503Z,74660
2016-12-29T00:38:47.187Z,74655
2016-12-29T00:38:55.854Z,74649
2016-12-29T00:39:04.544Z,74644
2016-12-29T00:39:13.240Z,74645
2016-12-29T00:39:21.935Z,74641
2016-12-29T00:39:30.598Z,74643
2016-12-29T00:39:39.274Z,74644
2016-12-29T00:39:47.940Z,74645
2016-12-29T00:39:56.598Z,74658
2016-12-29T00:40:05.264Z,74663
2016-12-29T00:40:13.927Z,74662
2016-12-29T00:40:22.586Z,74660
2016-12-29T00:40:31.273Z,74648
2016-12-29T00:40:39.949Z,74638
2016-12-29T00:40:48.645Z,74634
2016-12-29T00:40:57.315Z,74632
2016-12-29T00:41:06.360Z,74628
2016-12-29T00:41:15.041Z,74634
2016-12-29T00:41:23.705Z,74641
2016-12-29T00:41:32.389Z,74648
2016-12-29T00:41:41.059Z,74653
2016-12-29T00:41:49.734Z,74655
2016-12-29T00:41:58.433Z,74659
2016-12-29T00:42:07.115Z,74653
2016-12-29T00:42:15.779Z,74657
2016-12-29T00:42:24.452Z,74653
2016-12-29T00:42:33.123Z,74657
2016-12-29T00:42:41.789Z,74652
2016-12-29T00:42:50.486Z,74657
2016-12-29T00:42:59.155Z,74657
2016-12-29T00:43:07.819Z,74658
2016-12-29T00:43:16.481Z,74650
2016-12-29T00:43:25.131Z,74653
2016-12-29T00:43:33.796Z,74652
2016-12-29T00:43:42.493Z,74654
2016-12-29T00:43:51.148Z,74654
2016-12-29T00:43:59.819Z,74645
2016-12-29T00:44:08.481Z,74645
2016-12-29T00:44:17.151Z,74642
2016-12-29T00:44:25.824Z,74643
2016-12-29T00:44:34.507Z,74645
2016-12-29T00:44:43.193Z,74641
2016-12-29T00:44:51.883Z,74639
2016-12-29T00:45:00.560Z,74644
2016-12-29T00:45:09.618Z,74648
2016-12-29T00:45:18.668Z,74651
2016-12-29T00:45:27.343Z,74652
2016-12-29T00:45:36.021Z,74644
2016-12-29T00:45:44.673Z,74649
2016-12-29T00:45:53.353Z,74647
2016-12-29T00:46:02.019Z,74651
2016-12-29T00:46:10.696Z,74650
2016-12-29T00:46:19.379Z,74651
2016-12-29T00:46:28.042Z,74653
2016-12-29T00:46:36.720Z,74653
2016-12-29T00:46:45.405Z,74653
2016-12-29T00:46:54.067Z,74654
2016-12-29T00:47:02.741Z,74658
2016-12-29T00:47:11.423Z,74656
2016-12-29T00:47:20.092Z,74656
2016-12-29T00:47:28.766Z,74663
2016-12-29T00:47:37.435Z,74664
2016-12-29T00:47:46.102Z,74652
2016-12-29T00:47:54.787Z,74652
2016-12-29T00:48:03.439Z,74650
2016-12-29T00:48:12.119Z,74646
2016-12-29T00:48:20.779Z,74643
2016-12-29T00:48:29.467Z,74644
2016-12-29T00:48:38.130Z,74648
2016-12-29T00:48:46.785Z,74647
2016-12-29T00:48:55.443Z,74649
2016-12-29T00:49:04.114Z,74647
2016-12-29T00:49:12.811Z,74639
2016-12-29T00:49:21.486Z,74639
2016-12-29T00:49:30.130Z,74636
2016-12-29T00:49:38.792Z,74633
2016-12-29T00:49:47.466Z,74638
2016-12-29T00:49:56.666Z,74643
2016-12-29T00:50:05.352Z,74645
2016-12-29T00:50:14.027Z,74646
2016-12-29T00:50:22.703Z,74644
2016-12-29T00:50:31.351Z,74645
2016-12-29T00:50:40.028Z,74649
2016-12-29T00:50:48.712Z,74655
2016-12-29T00:50:57.403Z,74648
2016-12-29T00:51:06.109Z,74645
2016-12-29T00:51:14.805Z,74645
2016-12-29T00:51:23.461Z,74650
2016-12-29T00:51:32.137Z,74646
2016-12-29T00:51:40.807Z,74649
2016-12-29T00:51:49.472Z,74653
2016-12-29T00:51:58.145Z,74653
2016-12-29T00:52:06.810Z,74657
2016-12-29T00:52:15.476Z,74650
2016-12-29T00:52:24.192Z,74650
2016-12-29T00:52:32.889Z,74649
2016-12-29T00:52:41.570Z,74653
2016-12-29T00:52:50.264Z,74655
2016-12-29T00:52:58.934Z,74655
2016-12-29T00:53:07.623Z,74656
2016-12-29T00:53:16.292Z,74657
2016-12-29T00:53:24.971Z,74659
2016-12-29T00:53:33.642Z,74651
2016-12-29T00:53:42.313Z,74658
2016-12-29T00:53:51.027Z,74665
2016-12-29T00:53:59.684Z,74661
2016-12-29T00:54:08.336Z,74661
2016-12-29T00:54:16.994Z,74657
2016-12-29T00:54:25.683Z,74653
2016-12-29T00:54:34.337Z,74649
2016-12-29T00:54:43.023Z,74644
2016-12-29T00:54:51.708Z,74634
2016-12-29T00:55:00.349Z,74629
2016-12-29T00:55:09.034Z,74628
2016-12-29T00:55:17.716Z,74628
2016-12-29T00:55:26.397Z,74629
2016-12-29T00:55:35.068Z,74631
2016-12-29T00:55:43.734Z,74638
2016-12-29T00:55:52.406Z,74641
2016-12-29T00:56:01.077Z,74645
2016-12-29T00:56:09.729Z,74641
2016-12-29T00:56:18.403Z,74638
2016-12-29T00:56:27.070Z,74635
2016-12-29T00:56:35.748Z,74636
2016-12-29T00:56:44.393Z,74635
2016-12-29T00:56:53.059Z,74645
2016-12-29T00:57:01.726Z,74645
2016-12-29T00:57:10.397Z,74649
2016-12-29T00:57:19.059Z,74645
2016-12-29T00:57:27.740Z,74643
2016-12-29T00:57:36.419Z,74645
2016-12-29T00:57:45.101Z,74647
2016-12-29T00:57:53.757Z,74652
2016-12-29T00:58:02.427Z,74657
2016-12-29T00:58:11.122Z,74657
2016-12-29T00:58:19.790Z,74654
2016-12-29T00:58:28.474Z,74653
2016-12-29T00:58:37.142Z,74648
2016-12-29T00:58:45.797Z,74644
2016-12-29T00:58:54.476Z,74641
2016-12-29T00:59:03.164Z,74643
2016-12-29T00:59:11.858Z,74639
2016-12-29T00:59:20.544Z,74645
2016-12-29T00:59:29.209Z,74644
2016-12-29T00:59:37.877Z,74645
2016-12-29T00:59:46.559Z,74645
2016-12-29T00:59:55.232Z,74645
2016-12-29T01:00:04.284Z,74651
2016-12-29T01:00:12.955Z,74656
2016-12-29T01:00:21.634Z,74658
2016-12-29T01:00:30.323Z,74659
2016-12-29T01:00:39.002Z,74659
2016-12-29T01:00:47.665Z,74657
2016-12-29T01:00:56.341Z,74662
2016-12-29T01:01:04.984Z,74660
2016-12-29T01:01:13.670Z,74646
2016-12-29T01:01:22.339Z,74641
2016-12-29T01:01:31.010Z,74635
2016-12-29T01:01:39.690Z,74631
2016-12-29T01:01:48.343Z,74626
2016-12-29T01:01:57.405Z,74621
2016-12-29T01:02:06.105Z,74628
2016-12-29T01:02:14.781Z,74626
2016-12-29T01:02:23.478Z,74632
2016-12-29T01:02:32.155Z,74633
2016-12-29T01:02:40.826Z,74638
2016-12-29T01:02:49.494Z,74640
2016-12-29T01:02:58.168Z,74647
2016-12-29T01:03:06.856Z,74651
2016-12-29T01:03:15.534Z,74656
2016-12-29T01:03:24.193Z,74655
2016-12-29T01:03:32.850Z,74646
2016-12-29T01:03:41.525Z,74649
2016-12-29T01:03:50.193Z,74650
2016-12-29T01:03:58.882Z,74652
2016-12-29T01:04:07.557Z,74657
2016-12-29T01:04:16.235Z,74657
2016-12-29T01:04:24.900Z,74658
2016-12-29T01:04:33.590Z,74647
2016-12-29T01:04:42.252Z,74649
2016-12-29T01:04:50.935Z,74643
2016-12-29T01:04:59.596Z,74640
2016-12-29T01:05:08.269Z,74634
2016-12-29T01:05:16.942Z,74631
2016-12-29T01:05:25.616Z,74632
2016-12-29T01:05:34.319Z,74632
2016-12-29T01:05:42.987Z,74647
2016-12-29T01:05:51.670Z,74648
2016-12-29T01:06:00.349Z,74650
2016-12-29T01:06:09.034Z,74646
2016-12-29T01:06:17.723Z,74637
2016-12-29T01:06:26.417Z,74638
2016-12-29T01:06:35.081Z,74638
2016-12-29T01:06:43.778Z,74640
2016-12-29T01:06:52.433Z,74639
2016-12-29T01:07:01.124Z,74647
2016-12-29T01:07:09.803Z,74648
2016-12-29T01:07:18.485Z,74652
2016-12-29T01:07:27.135Z,74653
2016-12-29T01:07:35.815Z,74654
2016-12-29T01:07:44.473Z,74652
2016-12-29T01:07:53.142Z,74646
2016-12-29T01:08:01.800Z,74645
2016-12-29T01:08:10.463Z,74646
2016-12-29T01:08:19.143Z,74646
2016-12-29T01:08:27.811Z,74647
2016-12-29T01:08:36.488Z,74645
2016-12-29T01:08:45.154Z,74640
2016-12-29T01:08:53.834Z,74635
2016-12-29T01:09:02.512Z,74628
2016-12-29T01:09:11.187Z,74626
2016-12-29T01:09:19.899Z,74625
2016-12-29T01:09:28.561Z,74626
2016-12-29T01:09:37.220Z,74628
2016-12-29T01:09:45.892Z,74633
2016-12-29T01:09:54.567Z,74638
2016-12-29T01:10:03.227Z,74634
2016-12-29T01:10:11.891Z,74639
2016-12-29T01:10:20.564Z,74643
2016-12-29T01:10:29.218Z,74642
2016-12-29T01:10:37.872Z,74643
2016-12-29T01:10:46.530Z,74642
2016-12-29T01:10:55.236Z,74644
2016-12-29T01:11:03.906Z,74648
2016-12-29T01:11:12.603Z,74649
2016-12-29T01:11:21.289Z,74649
2016-12-29T01:11:29.962Z,74644
2016-12-29T01:11:38.643Z,74643
2016-12-29T01:11:47.314Z,74643
2016-12-29T01:11:55.980Z,74643
2016-12-29T01:12:04.655Z,74643
2016-12-29T01:12:13.312Z,74643
2016-12-29T01:12:21.984Z,74641
2016-12-29T01:12:30.655Z,74644
2016-12-29T01:12:39.333Z,74646
2016-12-29T01:12:48.005Z,74644
2016-12-29T01:12:56.684Z,74643
2016-12-29T01:13:05.363Z,74643
2016-12-29T01:13:14.045Z,74641
2016-12-29T01:13:22.706Z,74643
2016-12-29T01:13:31.387Z,74639
2016-12-29T01:13:40.042Z,74640
2016-12-29T01:13:48.711Z,74643
2016-12-29T01:13:57.389Z,74637
2016-12-29T01:14:06.066Z,74640
2016-12-29T01:14:14.722Z,74634
2016-12-29T01:14:23.384Z,74638
2016-12-29T01:14:32.050Z,74643
2016-12-29T01:14:40.727Z,74644
2016-12-29T01:14:49.391Z,74650
2016-12-29T01:14:58.088Z,74649
2016-12-29T01:15:06.772Z,74648
2016-12-29T01:15:15.803Z,74645
2016-12-29T01:15:24.478Z,74644
2016-12-29T01:15:33.133Z,74643
2016-12-29T01:15:41.807Z,74645
2016-12-29T01:15:50.470Z,74640
2016-12-29T01:15:59.136Z,74636
2016-12-29T01:16:07.803Z,74635
2016-12-29T01:16:16.495Z,74632
2016-12-29T01:16:25.540Z,74633
2016-12-29T01:16:34.207Z,74642
2016-12-29T01:16:42.875Z,74644
2016-12-29T01:16:51.558Z,74641
2016-12-29T01:17:00.251Z,74642
2016-12-29T01:17:08.933Z,74647
2016-12-29T01:17:17.610Z,74650
2016-12-29T01:17:26.285Z,74651
2016-12-29T01:17:34.964Z,74656
2016-12-29T01:17:43.621Z,74656
2016-12-29T01:17:52.295Z,74654
2016-12-29T01:18:00.977Z,74654
2016-12-29T01:18:09.637Z,74653
2016-12-29T01:18:18.313Z,74652
2016-12-29T01:18:26.982Z,74653
2016-12-29T01:18:35.637Z,74648
2016-12-29T01:18:44.336Z,74650
2016-12-29T01:18:53.026Z,74642
2016-12-29T01:19:01.679Z,74638
2016-12-29T01:19:10.348Z,74637
2016-12-29T01:19:19.060Z,74632
2016-12-29T01:19:27.745Z,74638
2016-12-29T01:19:36.433Z,74635
2016-12-29T01:19:45.472Z,74641
2016-12-29T01:19:54.136Z,74638
2016-12-29T01:20:02.799Z,74636
2016-12-29T01:20:11.480Z,74636
2016-12-29T01:20:20.149Z,74636
2016-12-29T01:20:28.831Z,74641
2016-12-29T01:20:37.511Z,74641
2016-12-29T01:20:46.176Z,74647
2016-12-29T01:20:54.866Z,74647
2016-12-29T01:21:03.530Z,74649
2016-12-29T01:21:12.197Z,74642
2016-12-29T01:21:20.885Z,74645
2016-12-29T01:21:29.574Z,74641
2016-12-29T01:21:38.252Z,74645
2016-12-29T01:21:46.921Z,74642
2016-12-29T01:21:55.589Z,74640
2016-12-29T01:22:04.274Z,74643
2016-12-29T01:22:12.981Z,74641
2016-12-29T01:22:21.659Z,74637
2016-12-29T01:22:30.330Z,74637
2016-12-29T01:22:38.992Z,74643
2016-12-29T01:22:47.693Z,74641
2016-12-29T01:22:56.378Z,74644
2016-12-29T01:23:05.057Z,74646
2016-12-29T01:23:13.714Z,74640
2016-12-29T01:23:22.358Z,74639
2016-12-29T01:23:31.014Z,74639
2016-12-29T01:23:39.672Z,74639
2016-12-29T01:23:48.352Z,74630
2016-12-29T01:23:57.004Z,74639
2016-12-29T01:24:05.651Z,74639
2016-12-29T01:24:14.329Z,74637
2016-12-29T01:24:23.014Z,74640
2016-12-29T01:24:32.046Z,74639
2016-12-29T01:24:40.722Z,74645
2016-12-29T01:24:49.404Z,74643
2016-12-29T01:24:58.073Z,74642
2016-12-29T01:25:06.749Z,74641
2016-12-29T01:25:15.440Z,74640
2016-12-29T01:25:24.114Z,74633
2016-12-29T01:25:32.773Z,74634
2016-12-29T01:25:41.441Z,74638
2016-12-29T01:25:50.134Z,74638
2016-12-29T01:25:58.801Z,74641
2016-12-29T01:26:07.475Z,74640
2016-12-29T01:26:16.143Z,74641
2016-12-29T01:26:24.807Z,74638
2016-12-29T01:26:33.482Z,74636
2016-12-29T01:26:42.528Z,74637
2016-12-29T01:26:51.234Z,74638
2016-12-29T01:26:59.914Z,74635
2016-12-29T01:27:08.579Z,74641
2016-12-29T01:27:17.232Z,74642
2016-12-29T01:27:25.888Z,74641
2016-12-29T01:27:34.571Z,74641
2016-12-29T01:27:43.237Z,74638
2016-12-29T01:27:51.908Z,74631
2016-12-29T01:28:00.578Z,74627
2016-12-29T01:28:09.256Z,74626
2016-12-29T01:28:17.947Z,74630
2016-12-29T01:28:26.597Z,74635
2016-12-29T01:28:35.264Z,74634
2016-12-29T01:28:43.940Z,74633
2016-12-29T01:28:52.597Z,74635
2016-12-29T01:29:01.294Z,74633
2016-12-29T01:29:09.948Z,74629
2016-12-29T01:29:18.617Z,74630
2016-12-29T01:29:27.280Z,74633
2016-12-29T01:29:35.943Z,74631
2016-12-29T01:29:44.604Z,74632
2016-12-29T01:29:53.277Z,74628
2016-12-29T01:30:01.959Z,74629
2016-12-29T01:30:10.607Z,74633
2016-12-29T01:30:19.287Z,74632
2016-12-29T01:30:27.950Z,74637
2016-12-29T01:30:36.624Z,74635
2016-12-29T01:30:45.309Z,74637
2016-12-29T01:30:53.981Z,74642
2016-12-29T01:31:03.025Z,74651
2016-12-29T01:31:11.692Z,74653
2016-12-29T01:31:20.354Z,74650
2016-12-29T01:31:29.053Z,74648
2016-12-29T01:31:37.721Z,74636
2016-12-29T01:31:46.383Z,74628
2016-12-29T01:31:55.045Z,74623
2016-12-29T01:32:03.723Z,74615
2016-12-29T01:32:12.399Z,74613
2016-12-29T01:32:21.094Z,74611
2016-12-29T01:32:29.767Z,74610
2016-12-29T01:32:38.799Z,74618
2016-12-29T01:32:47.459Z,74628
2016-12-29T01:32:56.114Z,74632
2016-12-29T01:33:04.804Z,74636
2016-12-29T01:33:13.479Z,74636
2016-12-29T01:33:22.138Z,74639
2016-12-29T01:33:30.813Z,74641
2016-12-29T01:33:39.469Z,74639
2016-12-29T01:33:48.145Z,74641
2016-12-29T01:33:56.828Z,74637
2016-12-29T01:34:05.484Z,74636
2016-12-29T01:34:14.168Z,74627
2016-12-29T01:34:22.818Z,74627
2016-12-29T01:34:31.476Z,74630
2016-12-29T01:34:40.151Z,74635
2016-12-29T01:34:48.819Z,74637
2016-12-29T01:34:57.504Z,74641
2016-12-29T01:35:06.151Z,74646
2016-12-29T01:35:14.829Z,74638
2016-12-29T01:35:23.502Z,74635
2016-12-29T01:35:32.157Z,74632
2016-12-29T01:35:40.831Z,74629
2016-12-29T01:35:49.484Z,74624
2016-12-29T01:35:58.169Z,74621
2016-12-29T01:36:06.824Z,74618
2016-12-29T01:36:15.480Z,74620
2016-12-29T01:36:24.163Z,74616
2016-12-29T01:36:32.825Z,74618
2016-12-29T01:36:41.492Z,74622
2016-12-29T01:36:50.520Z,74627
2016-12-29T01:36:59.190Z,74635
2016-12-29T01:37:07.867Z,74633
2016-12-29T01:37:16.542Z,74637
2016-12-29T01:37:25.219Z,74639
2016-12-29T01:37:33.898Z,74639
2016-12-29T01:37:42.557Z,74636
2016-12-29T01:37:51.226Z,74632
2016-12-29T01:37:59.940Z,74633
2016-12-29T01:38:08.623Z,74639
2016-12-29T01:38:17.330Z,74636
2016-12-29T01:38:26.011Z,74634
2016-12-29T01:38:34.696Z,74628
2016-12-29T01:38:43.361Z,74623
2016-12-29T01:38:52.058Z,74625
2016-12-29T01:39:00.709Z,74624
2016-12-29T01:39:09.752Z,74622
2016-12-29T01:39:18.426Z,74622
2016-12-29T01:39:27.102Z,74626
2016-12-29T01:39:35.770Z,74629
2016-12-29T01:39:44.452Z,74632
2016-12-29T01:39:53.123Z,74630
2016-12-29T01:40:01.781Z,74635
2016-12-29T01:40:10.458Z,74631
2016-12-29T01:40:19.131Z,74634
2016-12-29T01:40:27.820Z,74634
2016-12-29T01:40:36.500Z,74629
2016-12-29T01:40:45.154Z,74633
2016-12-29T01:40:53.828Z,74637
2016-12-29T01:41:02.480Z,74642
2016-12-29T01:41:11.152Z,74643
2016-12-29T01:41:19.812Z,74642
2016-12-29T01:41:28.483Z,74630
2016-12-29T01:41:37.162Z,74633
2016-12-29T01:41:45.845Z,74622
2016-12-29T01:41:54.512Z,74620
2016-12-29T01:42:03.192Z,74616
2016-12-29T01:42:11.890Z,74611
2016-12-29T01:42:20.567Z,74615
2016-12-29T01:42:29.245Z,74625
2016-12-29T01:42:37.922Z,74627
2016-12-29T01:42:46.608Z,74635
2016-12-29T01:42:55.304Z,74642
2016-12-29T01:43:04.012Z,74633
2016-12-29T01:43:12.667Z,74631
2016-12-29T01:43:21.353Z,74624
2016-12-29T01:43:30.042Z,74618
2016-12-29T01:43:38.720Z,74616
2016-12-29T01:43:47.402Z,74622
2016-12-29T01:43:56.067Z,74624
2016-12-29T01:44:04.747Z,74624
2016-12-29T01:44:13.421Z,74628
2016-12-29T01:44:22.093Z,74630
2016-12-29T01:44:30.769Z,74633
2016-12-29T01:44:39.474Z,74640
2016-12-29T01:44:48.157Z,74637
2016-12-29T01:44:56.824Z,74639
2016-12-29T01:45:05.488Z,74633
2016-12-29T01:45:14.185Z,74619
2016-12-29T01:45:22.861Z,74605
2016-12-29T01:45:31.539Z,74587
2016-12-29T01:45:40.208Z,74593
2016-12-29T01:45:48.889Z,74602
2016-12-29T01:45:57.579Z,74606
2016-12-29T01:46:06.262Z,74612
2016-12-29T01:46:14.929Z,74617
2016-12-29T01:46:23.603Z,74615
2016-12-29T01:46:32.262Z,74620
2016-12-29T01:46:40.946Z,74623
2016-12-29T01:46:49.603Z,74627
2016-12-29T01:46:58.297Z,74622
2016-12-29T01:47:06.987Z,74619
2016-12-29T01:47:15.679Z,74618
2016-12-29T01:47:24.753Z,74620
2016-12-29T01:47:33.434Z,74616
2016-12-29T01:47:42.107Z,74613
2016-12-29T01:47:50.789Z,74615
2016-12-29T01:47:59.469Z,74618
2016-12-29T01:48:08.145Z,74615
2016-12-29T01:48:16.820Z,74616
2016-12-29T01:48:25.509Z,74613
2016-12-29T01:48:34.196Z,74612
2016-12-29T01:48:42.875Z,74611
2016-12-29T01:48:51.559Z,74608
2016-12-29T01:49:00.228Z,74606
2016-12-29T01:49:08.901Z,74604
2016-12-29T01:49:17.569Z,74616
2016-12-29T01:49:26.240Z,74621
2016-12-29T01:49:34.908Z,74613
2016-12-29T01:49:43.593Z,74612
2016-12-29T01:49:52.264Z,74613
2016-12-29T01:50:00.940Z,74611
2016-12-29T01:50:09.609Z,74618
2016-12-29T01:50:18.274Z,74616
2016-12-29T01:50:26.940Z,74618
2016-12-29T01:50:35.645Z,74616
2016-12-29T01:50:44.319Z,74618
2016-12-29T01:50:52.993Z,74617
2016-12-29T01:51:01.669Z,74623
2016-12-29T01:51:10.339Z,74628
2016-12-29T01:51:19.007Z,74623
2016-12-29T01:51:27.658Z,74624
2016-12-29T01:51:36.348Z,74621
2016-12-29T01:51:45.024Z,74617